createdAt,value
2018-09-22T00:00:57.446Z,80.40
2018-09-22T00:03:25.357Z,80.40
2018-09-22T00:05:53.454Z,80.40
2018-09-22T00:08:21.393Z,80.30
2018-09-22T00:10:50.082Z,80.40
2018-09-22T00:13:18.052Z,80.80
2018-09-22T00:15:46.113Z,80.40
2018-09-22T00:18:14.103Z,80.50
2018-09-22T00:20:42.165Z,80.60
2018-09-22T00:23:10.238Z,80.00
2018-09-22T00:25:38.197Z,80.10
2018-09-22T00:28:06.193Z,79.70
2018-09-22T00:30:34.226Z,79.00
2018-09-22T00:33:02.214Z,78.70
2018-09-22T00:35:30.245Z,78.70
2018-09-22T00:37:58.220Z,78.40
2018-09-22T00:40:26.330Z,77.80
2018-09-22T00:42:54.350Z,77.90
2018-09-22T00:45:22.389Z,78.30
2018-09-22T00:47:50.344Z,78.60
2018-09-22T00:50:18.460Z,78.70
2018-09-22T00:52:46.505Z,78.50
2018-09-22T00:55:14.522Z,78.90
2018-09-22T00:57:42.501Z,79.20
2018-09-22T01:00:10.458Z,79.40
2018-09-22T01:02:38.465Z,79.40
2018-09-22T01:05:06.567Z,79.70
2018-09-22T01:07:34.654Z,79.40
2018-09-22T01:10:02.609Z,79.30
2018-09-22T01:12:30.687Z,78.70
2018-09-22T01:14:58.682Z,79.20
2018-09-22T01:17:26.717Z,79.30
2018-09-22T01:19:54.671Z,79.40
2018-09-22T01:22:23.510Z,79.10
2018-09-22T01:24:51.477Z,79.30
2018-09-22T01:27:19.951Z,79.20
2018-09-22T01:29:47.937Z,79.50
2018-09-22T01:32:15.897Z,79.60
2018-09-22T01:34:43.854Z,79.60
2018-09-22T01:37:11.881Z,79.50
2018-09-22T01:39:39.894Z,79.20
2018-09-22T01:42:07.834Z,79.40
2018-09-22T01:44:35.860Z,79.10
2018-09-22T01:47:04.066Z,78.60
2018-09-22T01:49:31.998Z,78.80
2018-09-22T01:51:59.964Z,78.80
2018-09-22T01:54:27.912Z,79.20
2018-09-22T01:56:55.885Z,78.90
2018-09-22T01:59:23.958Z,78.90
2018-09-22T02:01:51.906Z,79.40
2018-09-22T02:04:19.792Z,79.10
2018-09-22T02:06:47.819Z,78.40
2018-09-22T02:09:15.745Z,78.90
2018-09-22T02:11:43.781Z,78.60
2018-09-22T02:14:12.211Z,78.00
2018-09-22T02:16:40.272Z,77.90
2018-09-22T02:19:08.206Z,77.30
2018-09-22T02:21:36.384Z,77.80
2018-09-22T02:24:04.283Z,76.70
2018-09-22T02:26:33.512Z,76.80
2018-09-22T02:29:01.477Z,76.30
2018-09-22T02:31:29.575Z,76.50
2018-09-22T02:33:57.483Z,76.70
2018-09-22T02:36:25.444Z,76.30
2018-09-22T02:38:53.422Z,76.00
2018-09-22T02:41:21.442Z,76.80
2018-09-22T02:43:49.369Z,75.80
2018-09-22T02:46:17.639Z,76.00
2018-09-22T02:48:45.597Z,75.80
2018-09-22T02:51:13.626Z,75.80
2018-09-22T02:53:41.553Z,75.70
2018-09-22T02:56:09.537Z,74.90
2018-09-22T02:58:37.545Z,74.90
2018-09-22T03:01:05.601Z,74.50
2018-09-22T03:03:33.693Z,75.30
2018-09-22T03:06:01.682Z,74.70
2018-09-22T03:08:29.685Z,75.30
2018-09-22T03:10:57.659Z,74.90
2018-09-22T03:13:25.649Z,74.80
2018-09-22T03:15:53.617Z,74.60
2018-09-22T03:18:21.597Z,74.20
2018-09-22T03:20:49.590Z,73.80
2018-09-22T03:23:18.436Z,74.30
2018-09-22T03:25:46.440Z,74.00
2018-09-22T03:28:14.417Z,73.50
2018-09-22T03:30:42.362Z,73.10
2018-09-22T03:33:10.431Z,73.20
2018-09-22T03:35:39.052Z,73.10
2018-09-22T03:38:07.043Z,72.80
2018-09-22T03:40:34.994Z,72.60
2018-09-22T03:43:02.979Z,73.20
2018-09-22T03:45:30.975Z,73.10
2018-09-22T03:47:59.072Z,73.00
2018-09-22T03:50:27.089Z,72.90
2018-09-22T03:52:55.123Z,73.20
2018-09-22T03:55:23.050Z,73.20
2018-09-22T03:57:50.986Z,73.50
2018-09-22T04:00:18.993Z,73.70
2018-09-22T04:02:46.970Z,73.40
2018-09-22T04:05:14.998Z,73.70
2018-09-22T04:07:42.944Z,73.70
2018-09-22T04:10:10.949Z,73.90
2018-09-22T04:12:39.520Z,73.40
2018-09-22T04:15:07.489Z,73.80
2018-09-22T04:17:35.462Z,73.60
2018-09-22T04:20:03.573Z,73.90
2018-09-22T04:22:32.669Z,74.00
2018-09-22T04:25:00.762Z,73.70
2018-09-22T04:27:28.782Z,73.60
2018-09-22T04:29:56.755Z,73.70
2018-09-22T04:32:24.674Z,74.20
2018-09-22T04:34:52.676Z,74.00
2018-09-22T04:37:20.610Z,74.10
2018-09-22T04:39:48.522Z,73.60
2018-09-22T04:42:16.582Z,74.00
2018-09-22T04:44:44.514Z,74.10
2018-09-22T04:47:12.511Z,73.90
2018-09-22T04:49:40.506Z,74.10
2018-09-22T04:52:08.525Z,74.20
2018-09-22T04:54:36.471Z,74.20
2018-09-22T04:57:04.458Z,74.30
2018-09-22T04:59:33.617Z,74.20
2018-09-22T05:02:01.578Z,74.40
2018-09-22T05:04:30.182Z,74.20
2018-09-22T05:06:58.215Z,74.10
2018-09-22T05:09:26.164Z,74.70
2018-09-22T05:11:54.135Z,74.30
2018-09-22T05:14:22.117Z,74.80
2018-09-22T05:16:50.367Z,75.00
2018-09-22T05:19:19.238Z,74.80
2018-09-22T05:21:47.266Z,74.80
2018-09-22T05:24:15.218Z,75.40
2018-09-22T05:26:43.266Z,75.20
2018-09-22T05:29:11.241Z,75.10
2018-09-22T05:31:39.225Z,74.90
2018-09-22T05:34:07.882Z,74.30
2018-09-22T05:36:35.857Z,74.60
2018-09-22T05:39:05.917Z,75.20
2018-09-22T05:41:35.984Z,74.30
2018-09-22T05:44:04.186Z,73.90
2018-09-22T05:46:32.361Z,74.20
2018-09-22T05:49:00.293Z,73.90
2018-09-22T05:51:28.251Z,73.90
2018-09-22T05:53:56.247Z,73.20
2018-09-22T05:56:24.868Z,73.30
2018-09-22T05:58:52.909Z,73.30
2018-09-22T06:01:20.894Z,73.10
2018-09-22T06:03:49.060Z,72.70
2018-09-22T06:06:17.452Z,72.40
2018-09-22T06:08:45.438Z,72.40
2018-09-22T06:11:13.401Z,72.20
2018-09-22T06:13:41.327Z,72.50
2018-09-22T06:16:09.438Z,72.40
2018-09-22T06:18:38.443Z,72.50
2018-09-22T06:21:06.508Z,72.90
2018-09-22T06:23:34.517Z,72.50
2018-09-22T06:26:02.603Z,72.30
2018-09-22T06:28:30.598Z,72.20
2018-09-22T06:30:58.537Z,71.80
2018-09-22T06:33:26.555Z,72.50
2018-09-22T06:35:54.526Z,72.10
2018-09-22T06:38:23.300Z,72.60
2018-09-22T06:40:51.382Z,73.00
2018-09-22T06:43:19.421Z,73.00
2018-09-22T06:45:47.468Z,72.70
2018-09-22T06:48:15.474Z,72.60
2018-09-22T06:50:43.422Z,72.60
2018-09-22T06:53:11.740Z,72.50
2018-09-22T06:55:39.710Z,72.80
2018-09-22T06:58:08.007Z,71.90
2018-09-22T07:00:36.005Z,72.10
2018-09-22T07:03:03.973Z,72.10
2018-09-22T07:05:32.030Z,71.80
2018-09-22T07:07:59.997Z,72.50
2018-09-22T07:10:28.540Z,72.70
2018-09-22T07:12:56.537Z,72.90
2018-09-22T07:15:24.511Z,72.80
2018-09-22T07:17:52.538Z,73.00
2018-09-22T07:20:20.500Z,72.30
2018-09-22T07:22:53.931Z,72.40
2018-09-22T07:25:21.870Z,72.10
2018-09-22T07:27:49.788Z,72.00
2018-09-22T07:30:18.307Z,72.50
2018-09-22T07:32:46.343Z,72.00
2018-09-22T07:35:15.012Z,71.90
2018-09-22T07:37:42.965Z,71.30
2018-09-22T07:40:11.213Z,70.80
2018-09-22T07:42:39.240Z,70.70
2018-09-22T07:45:07.348Z,70.50
2018-09-22T07:47:35.390Z,68.50
2018-09-22T07:50:03.449Z,69.60
2018-09-22T07:52:31.776Z,70.10
2018-09-22T07:54:59.930Z,69.20
2018-09-22T07:57:28.217Z,69.20
2018-09-22T07:59:56.374Z,68.60
2018-09-22T08:02:24.465Z,69.00
2018-09-22T08:04:52.456Z,69.30
2018-09-22T08:07:21.358Z,68.60
2018-09-22T08:09:49.297Z,67.90
2018-09-22T08:12:17.333Z,65.30
2018-09-22T08:14:45.252Z,63.10
2018-09-22T08:17:13.260Z,61.40
2018-09-22T08:19:41.227Z,61.30
2018-09-22T08:22:09.149Z,63.00
2018-09-22T08:24:37.165Z,62.00
2018-09-22T08:27:05.215Z,61.80
2018-09-22T08:29:33.104Z,61.60
2018-09-22T08:32:01.199Z,61.70
2018-09-22T08:34:29.189Z,59.30
2018-09-22T08:36:57.392Z,58.80
2018-09-22T08:39:25.128Z,59.20
2018-09-22T08:41:53.085Z,58.90
2018-09-22T08:44:20.996Z,59.20
2018-09-22T08:46:50.007Z,59.80
2018-09-22T08:49:17.981Z,60.00
2018-09-22T08:51:46.044Z,59.80
2018-09-22T08:54:13.993Z,59.40
2018-09-22T08:56:41.987Z,60.30
2018-09-22T08:59:09.933Z,59.00
2018-09-22T09:01:37.916Z,58.80
2018-09-22T09:04:06.121Z,58.80
2018-09-22T09:06:35.130Z,57.10
2018-09-22T09:09:04.135Z,56.50
2018-09-22T09:11:33.239Z,56.40
2018-09-22T09:14:02.163Z,55.70
2018-09-22T09:16:30.171Z,55.00
2018-09-22T09:18:58.264Z,55.60
2018-09-22T09:21:27.087Z,55.80
2018-09-22T09:23:55.196Z,55.90
2018-09-22T09:26:23.118Z,55.70
2018-09-22T09:28:51.990Z,54.70
2018-09-22T09:31:19.949Z,52.60
2018-09-22T09:33:48.776Z,52.50
2018-09-22T09:36:16.700Z,53.50
2018-09-22T09:38:44.743Z,53.20
2018-09-22T09:41:13.593Z,53.00
2018-09-22T09:43:41.716Z,52.00
2018-09-22T09:46:09.873Z,53.10
2018-09-22T09:48:37.853Z,53.10
2018-09-22T09:51:05.869Z,54.00
2018-09-22T09:53:33.895Z,53.50
2018-09-22T09:56:01.964Z,53.60
2018-09-22T09:58:30.083Z,53.30
2018-09-22T10:00:58.089Z,54.00
2018-09-22T10:03:26.057Z,52.90
2018-09-22T10:05:54.014Z,51.60
2018-09-22T10:08:21.997Z,51.50
2018-09-22T10:10:50.084Z,51.80
2018-09-22T10:13:18.777Z,52.30
2018-09-22T10:15:46.805Z,50.70
2018-09-22T10:18:14.780Z,50.00
2018-09-22T10:20:42.890Z,51.60
2018-09-22T10:23:10.947Z,51.00
2018-09-22T10:25:39.038Z,51.60
2018-09-22T10:28:07.088Z,50.60
2018-09-22T10:30:35.055Z,50.00
2018-09-22T10:33:03.090Z,50.10
2018-09-22T10:35:31.034Z,49.20
2018-09-22T10:37:59.029Z,49.30
2018-09-22T10:40:26.966Z,49.10
2018-09-22T10:42:54.968Z,49.70
2018-09-22T10:45:22.926Z,47.90
2018-09-22T10:47:50.861Z,48.50
2018-09-22T10:50:18.908Z,48.30
2018-09-22T10:52:46.986Z,48.70
2018-09-22T10:55:14.986Z,48.10
2018-09-22T10:57:43.749Z,48.80
2018-09-22T11:00:11.954Z,47.90
2018-09-22T11:02:39.878Z,47.90
2018-09-22T11:05:07.810Z,48.40
2018-09-22T11:07:35.841Z,48.70
2018-09-22T11:10:04.041Z,49.20
2018-09-22T11:12:32.013Z,49.00
2018-09-22T11:14:59.909Z,49.60
2018-09-22T11:17:27.883Z,48.80
2018-09-22T11:19:55.773Z,48.60
2018-09-22T11:22:23.772Z,49.10
2018-09-22T11:24:51.825Z,48.50
2018-09-22T11:27:19.810Z,45.80
2018-09-22T11:29:47.783Z,47.10
2018-09-22T11:32:15.778Z,48.00
2018-09-22T11:34:43.792Z,46.70
2018-09-22T11:37:11.794Z,44.90
2018-09-22T11:39:39.707Z,45.80
2018-09-22T11:42:07.780Z,45.80
2018-09-22T11:44:36.673Z,47.30
2018-09-22T11:47:04.604Z,46.10
2018-09-22T11:49:32.673Z,46.00
2018-09-22T11:52:00.721Z,45.80
2018-09-22T11:54:28.697Z,44.80
2018-09-22T11:56:56.668Z,45.80
2018-09-22T11:59:25.538Z,47.30
2018-09-22T12:01:53.591Z,45.80
2018-09-22T12:04:21.654Z,45.90
2018-09-22T12:06:49.833Z,44.90
2018-09-22T12:09:17.712Z,44.50
2018-09-22T12:11:45.642Z,44.60
2018-09-22T12:14:13.744Z,43.70
2018-09-22T12:16:41.606Z,43.90
2018-09-22T12:19:09.623Z,43.70
2018-09-22T12:21:37.650Z,44.60
2018-09-22T12:24:05.560Z,44.90
2018-09-22T12:26:33.559Z,44.00
2018-09-22T12:29:01.600Z,44.90
2018-09-22T12:31:29.576Z,43.80
2018-09-22T12:33:57.452Z,42.50
2018-09-22T12:36:25.474Z,42.20
2018-09-22T12:38:53.435Z,42.70
2018-09-22T12:41:21.436Z,44.30
2018-09-22T12:43:49.403Z,42.40
2018-09-22T12:46:17.372Z,42.30
2018-09-22T12:48:45.469Z,43.70
2018-09-22T12:51:13.459Z,45.10
2018-09-22T12:53:41.787Z,42.40
2018-09-22T12:56:09.782Z,43.10
2018-09-22T12:58:37.693Z,44.30
2018-09-22T13:01:05.688Z,44.10
2018-09-22T13:03:33.635Z,44.70
2018-09-22T13:06:01.695Z,43.10
2018-09-22T13:08:29.726Z,42.90
2018-09-22T13:10:57.621Z,43.90
2018-09-22T13:13:25.619Z,44.20
2018-09-22T13:15:53.819Z,43.10
2018-09-22T13:18:21.796Z,41.90
2018-09-22T13:20:49.769Z,41.90
2018-09-22T13:23:17.750Z,43.30
2018-09-22T13:25:46.608Z,42.50
2018-09-22T13:28:14.557Z,42.90
2018-09-22T13:30:42.507Z,43.00
2018-09-22T13:33:10.583Z,44.20
2018-09-22T13:35:38.557Z,41.90
2018-09-22T13:38:06.529Z,41.90
2018-09-22T13:40:34.425Z,41.00
2018-09-22T13:43:02.405Z,42.30
2018-09-22T13:45:30.926Z,40.70
2018-09-22T13:47:59.781Z,41.60
2018-09-22T13:50:27.760Z,40.10
2018-09-22T13:52:55.690Z,39.90
2018-09-22T13:55:23.637Z,38.40
2018-09-22T13:57:52.144Z,40.60
2018-09-22T14:00:20.050Z,40.00
2018-09-22T14:02:47.941Z,41.00
2018-09-22T14:05:15.900Z,39.00
2018-09-22T14:07:43.853Z,40.30
2018-09-22T14:10:11.964Z,38.70
2018-09-22T14:12:39.873Z,39.20
2018-09-22T14:15:08.546Z,39.50
2018-09-22T14:17:36.564Z,40.50
2018-09-22T14:20:04.745Z,40.40
2018-09-22T14:22:32.718Z,39.90
2018-09-22T14:25:00.757Z,39.90
2018-09-22T14:27:28.772Z,40.10
2018-09-22T14:29:56.838Z,39.20
2018-09-22T14:32:25.492Z,39.20
2018-09-22T14:34:53.490Z,39.30
2018-09-22T14:37:21.406Z,40.00
2018-09-22T14:39:49.319Z,41.00
2018-09-22T14:42:17.264Z,41.20
2018-09-22T14:44:45.845Z,39.90
2018-09-22T14:47:13.780Z,39.00
2018-09-22T14:49:42.406Z,39.50
2018-09-22T14:52:10.356Z,38.80
2018-09-22T14:54:38.348Z,38.30
2018-09-22T14:57:07.144Z,38.30
2018-09-22T14:59:35.083Z,39.00
2018-09-22T15:02:03.125Z,38.30
2018-09-22T15:04:31.095Z,39.00
2018-09-22T15:06:59.153Z,39.10
2018-09-22T15:09:27.084Z,38.60
2018-09-22T15:11:55.036Z,38.10
2018-09-22T15:14:23.197Z,38.40
2018-09-22T15:16:51.076Z,38.60
2018-09-22T15:19:19.168Z,37.20
2018-09-22T15:21:47.129Z,38.40
2018-09-22T15:24:15.070Z,38.60
2018-09-22T15:26:43.107Z,38.10
2018-09-22T15:29:11.065Z,38.90
2018-09-22T15:31:39.060Z,39.90
2018-09-22T15:34:07.051Z,38.90
2018-09-22T15:36:35.028Z,38.60
2018-09-22T15:39:03.665Z,39.40
2018-09-22T15:41:31.759Z,38.70
2018-09-22T15:43:59.726Z,38.00
2018-09-22T15:46:27.809Z,38.60
2018-09-22T15:48:55.809Z,39.20
2018-09-22T15:51:24.872Z,38.50
2018-09-22T15:53:52.964Z,38.80
2018-09-22T15:56:21.037Z,38.90
2018-09-22T15:58:49.198Z,39.10
2018-09-22T16:01:17.277Z,39.80
2018-09-22T16:03:45.372Z,40.80
2018-09-22T16:06:13.330Z,41.00
2018-09-22T16:08:41.393Z,40.90
2018-09-22T16:11:09.413Z,40.90
2018-09-22T16:13:37.312Z,40.90
2018-09-22T16:16:05.327Z,41.30
2018-09-22T16:18:33.339Z,41.50
2018-09-22T16:21:01.329Z,40.90
2018-09-22T16:23:29.282Z,41.00
2018-09-22T16:25:57.342Z,41.50
2018-09-22T16:28:25.415Z,41.70
2018-09-22T16:30:53.325Z,41.80
2018-09-22T16:33:21.357Z,42.00
2018-09-22T16:35:49.329Z,42.00
2018-09-22T16:38:17.645Z,42.00
2018-09-22T16:40:45.568Z,42.10
2018-09-22T16:43:13.511Z,41.80
2018-09-22T16:45:41.866Z,42.00
2018-09-22T16:48:09.842Z,42.40
2018-09-22T16:50:37.983Z,42.80
2018-09-22T16:53:06.021Z,42.90
2018-09-22T16:55:34.114Z,43.30
2018-09-22T16:58:02.059Z,43.10
2018-09-22T17:00:30.108Z,43.30
2018-09-22T17:02:58.199Z,43.60
2018-09-22T17:05:27.026Z,43.80
2018-09-22T17:07:54.932Z,44.20
2018-09-22T17:10:22.966Z,45.10
2018-09-22T17:12:50.988Z,45.80
2018-09-22T17:15:19.227Z,46.30
2018-09-22T17:17:47.309Z,48.00
2018-09-22T17:20:15.246Z,47.30
2018-09-22T17:22:43.223Z,47.20
2018-09-22T17:25:11.529Z,47.30
2018-09-22T17:27:39.722Z,47.70
2018-09-22T17:30:07.764Z,48.00
2018-09-22T17:32:35.978Z,48.80
2018-09-22T17:35:04.113Z,48.90
2018-09-22T17:37:32.681Z,48.90
2018-09-22T17:40:00.709Z,49.30
2018-09-22T17:42:28.729Z,49.30
2018-09-22T17:44:56.723Z,49.50
2018-09-22T17:47:24.752Z,49.60
2018-09-22T17:49:52.774Z,49.80
2018-09-22T17:52:20.750Z,49.60
2018-09-22T17:54:48.913Z,49.80
2018-09-22T17:57:16.939Z,50.10
2018-09-22T17:59:44.979Z,49.60
2018-09-22T18:02:13.066Z,49.40
2018-09-22T18:04:41.064Z,49.30
2018-09-22T18:07:09.023Z,49.20
2018-09-22T18:09:36.979Z,50.00
2018-09-22T18:12:04.957Z,49.70
2018-09-22T18:14:33.030Z,50.40
2018-09-22T18:17:01.029Z,50.30
2018-09-22T18:19:29.040Z,50.60
2018-09-22T18:21:57.041Z,50.80
2018-09-22T18:24:24.997Z,51.80
2018-09-22T18:26:52.966Z,52.20
2018-09-22T18:29:21.053Z,52.60
2018-09-22T18:31:49.025Z,52.80
2018-09-22T18:34:17.017Z,53.10
2018-09-22T18:36:44.948Z,53.30
2018-09-22T18:39:13.122Z,53.40
2018-09-22T18:41:41.140Z,53.30
2018-09-22T18:44:09.145Z,53.30
2018-09-22T18:46:37.193Z,54.20
2018-09-22T18:49:05.490Z,54.60
2018-09-22T18:51:33.501Z,54.10
2018-09-22T18:54:01.523Z,54.00
2018-09-22T18:56:29.622Z,54.00
2018-09-22T18:58:57.629Z,54.10
2018-09-22T19:01:25.688Z,54.00
2018-09-22T19:03:53.713Z,54.00
2018-09-22T19:06:21.716Z,53.80
2018-09-22T19:08:49.698Z,54.00
2018-09-22T19:11:17.798Z,54.00
2018-09-22T19:13:55.970Z,54.10
2018-09-22T19:16:31.678Z,54.10
2018-09-22T19:19:07.480Z,54.30
2018-09-22T19:21:47.561Z,56.20
2018-09-22T19:24:25.214Z,55.20
2018-09-22T19:27:01.853Z,54.80
2018-09-22T19:29:46.626Z,54.90
2018-09-22T19:32:25.862Z,55.20
2018-09-22T19:34:59.180Z,55.60
2018-09-22T19:37:31.033Z,55.70
2018-09-22T19:40:04.182Z,56.00
2018-09-22T19:42:53.057Z,56.70
2018-09-22T19:45:31.160Z,57.00
2018-09-22T19:48:19.614Z,56.30
2018-09-22T19:50:52.019Z,56.30
2018-09-22T19:53:20.117Z,56.40
2018-09-22T19:55:48.086Z,56.40
2018-09-22T19:58:16.052Z,56.20
2018-09-22T20:00:44.001Z,56.00
2018-09-22T20:03:11.943Z,56.30
2018-09-22T20:05:39.914Z,56.50
2018-09-22T20:08:07.875Z,56.70
2018-09-22T20:10:35.798Z,56.90
2018-09-22T20:13:03.829Z,57.30
2018-09-22T20:15:31.815Z,57.80
2018-09-22T20:17:59.778Z,58.90
2018-09-22T20:20:27.727Z,58.20
2018-09-22T20:22:55.709Z,59.00
2018-09-22T20:25:23.637Z,58.70
2018-09-22T20:27:51.614Z,59.10
2018-09-22T20:30:19.610Z,59.20
2018-09-22T20:32:47.602Z,59.90
2018-09-22T20:35:15.626Z,59.80
2018-09-22T20:37:43.623Z,60.00
2018-09-22T20:40:11.589Z,61.70
2018-09-22T20:42:39.581Z,60.80
2018-09-22T20:45:07.560Z,61.50
2018-09-22T20:47:35.506Z,61.50
2018-09-22T20:50:03.604Z,61.40
2018-09-22T20:52:31.501Z,61.50
2018-09-22T20:54:59.503Z,61.60
2018-09-22T20:57:27.446Z,62.00
2018-09-22T20:59:55.357Z,62.20
2018-09-22T21:02:23.360Z,62.60
2018-09-22T21:04:51.328Z,63.10
2018-09-22T21:07:19.233Z,64.00
2018-09-22T21:09:47.185Z,63.50
2018-09-22T21:12:15.209Z,64.10
2018-09-22T21:14:43.149Z,63.40
2018-09-22T21:17:11.086Z,63.60
2018-09-22T21:19:38.965Z,64.20
2018-09-22T21:22:06.953Z,64.60
2018-09-22T21:24:34.827Z,64.90
2018-09-22T21:27:02.765Z,64.60
2018-09-22T21:29:30.739Z,65.30
2018-09-22T21:31:58.683Z,65.00
2018-09-22T21:34:26.657Z,65.00
2018-09-22T21:36:54.582Z,65.10
2018-09-22T21:39:22.565Z,65.10
2018-09-22T21:41:50.599Z,66.50
2018-09-22T21:44:18.478Z,67.90
2018-09-22T21:46:46.404Z,66.40
2018-09-22T21:49:14.411Z,66.90
2018-09-22T21:51:42.331Z,66.70
2018-09-22T21:54:10.242Z,65.90
2018-09-22T21:56:38.130Z,66.70
2018-09-22T21:59:06.114Z,66.40
2018-09-22T22:01:38.745Z,66.20
2018-09-22T22:04:07.321Z,66.50
2018-09-22T22:06:35.323Z,66.10
2018-09-22T22:09:05.020Z,66.50
2018-09-22T22:11:33.090Z,66.70
2018-09-22T22:14:01.617Z,66.50
2018-09-22T22:16:29.528Z,66.60
2018-09-22T22:21:32.242Z,66.10
2018-09-22T22:24:00.208Z,66.00
2018-09-22T22:26:28.162Z,66.30
2018-09-22T22:28:56.187Z,66.50
2018-09-22T22:31:24.093Z,66.50
2018-09-22T22:33:52.550Z,67.30
2018-09-22T22:36:21.076Z,67.80
2018-09-22T22:38:49.017Z,67.50
2018-09-22T22:41:17.086Z,67.30
2018-09-22T22:43:45.165Z,67.60
2018-09-22T22:46:13.515Z,67.70
2018-09-22T22:48:41.618Z,67.80
2018-09-22T22:51:09.575Z,66.90
2018-09-22T22:53:37.438Z,67.00
2018-09-22T22:56:05.497Z,69.80
2018-09-22T22:58:33.531Z,68.10
2018-09-22T23:01:01.484Z,68.40
2018-09-22T23:03:29.526Z,68.90
2018-09-22T23:05:57.482Z,68.90
2018-09-22T23:08:25.452Z,68.90
2018-09-22T23:10:53.401Z,69.00
2018-09-22T23:13:21.365Z,69.00
2018-09-22T23:15:49.250Z,68.60
2018-09-22T23:18:17.143Z,68.80
2018-09-22T23:20:45.158Z,69.30
2018-09-22T23:23:13.184Z,69.20
2018-09-22T23:25:41.102Z,69.30
2018-09-22T23:28:09.042Z,69.70
2018-09-22T23:30:37.031Z,70.00
2018-09-22T23:33:05.010Z,70.10
2018-09-22T23:35:32.988Z,70.50
2018-09-22T23:38:00.902Z,71.30
2018-09-22T23:40:28.988Z,71.30
2018-09-22T23:42:57.040Z,71.90
2018-09-22T23:45:25.020Z,72.70
2018-09-22T23:47:52.971Z,72.80
2018-09-22T23:50:20.909Z,72.50
2018-09-22T23:52:48.916Z,72.70
2018-09-22T23:55:16.856Z,72.80
2018-09-22T23:57:44.825Z,73.20
